createdAt,value
2022-12-19T00:00:26.317Z,11.30
2022-12-19T00:03:13.848Z,11.13
2022-12-19T00:06:02.799Z,11.67
2022-12-19T00:08:51.308Z,11.37
2022-12-19T00:11:38.789Z,10.60
2022-12-19T00:14:26.319Z,11.13
2022-12-19T00:17:13.691Z,10.80
2022-12-19T00:20:01.079Z,11.83
2022-12-19T00:22:48.447Z,11.77
2022-12-19T00:25:40.118Z,11.50
2022-12-19T00:28:27.552Z,12.17
2022-12-19T00:31:15.663Z,12.17
2022-12-19T00:34:03.111Z,12.07
2022-12-19T00:36:50.493Z,11.53
2022-12-19T00:39:37.887Z,12.13
2022-12-19T00:42:25.247Z,11.57
2022-12-19T00:45:12.639Z,11.30
2022-12-19T00:47:59.961Z,11.83
2022-12-19T00:50:47.320Z,11.90
2022-12-19T00:53:35.116Z,12.63
2022-12-19T00:56:24.648Z,11.60
2022-12-19T00:59:11.982Z,11.10
2022-12-19T01:01:59.610Z,11.23
2022-12-19T01:04:47.036Z,12.27
2022-12-19T01:07:34.398Z,12.47
2022-12-19T01:10:21.745Z,11.20
2022-12-19T01:13:09.080Z,12.47
2022-12-19T01:15:56.631Z,12.47
2022-12-19T01:18:43.956Z,10.43
2022-12-19T01:21:31.342Z,9.63
2022-12-19T01:24:19.230Z,12.07
2022-12-19T01:27:06.700Z,12.13
2022-12-19T01:29:54.132Z,10.83
2022-12-19T01:32:41.470Z,11.83
2022-12-19T01:35:29.225Z,11.67
2022-12-19T01:38:17.662Z,11.30
2022-12-19T01:41:05.534Z,12.33
2022-12-19T01:43:58.700Z,11.33
2022-12-19T01:46:50.675Z,11.60
2022-12-19T01:49:38.218Z,12.37
2022-12-19T01:52:25.722Z,10.63
2022-12-19T01:55:13.548Z,11.73
2022-12-19T01:58:01.668Z,11.67
2022-12-19T02:00:49.130Z,11.10
2022-12-19T02:03:38.376Z,10.87
2022-12-19T02:06:26.632Z,10.97
2022-12-19T02:09:14.022Z,11.30
2022-12-19T02:12:01.739Z,10.87
2022-12-19T02:14:49.288Z,12.20
2022-12-19T02:17:48.787Z,12.73
2022-12-19T02:20:55.604Z,11.60
2022-12-19T02:23:42.941Z,11.53
2022-12-19T02:26:45.363Z,11.50
2022-12-19T02:29:38.627Z,11.83
2022-12-19T02:32:32.909Z,10.80
2022-12-19T02:35:24.940Z,12.20
2022-12-19T02:38:51.521Z,11.40
2022-12-19T02:42:11.033Z,11.73
2022-12-19T02:45:03.210Z,10.73
2022-12-19T02:47:50.952Z,10.97
2022-12-19T02:50:39.556Z,10.93
2022-12-19T02:53:26.917Z,11.23
2022-12-19T02:56:29.226Z,11.97
2022-12-19T02:59:25.581Z,11.93
2022-12-19T03:02:13.075Z,11.23
2022-12-19T03:05:08.427Z,11.97
2022-12-19T03:08:09.037Z,11.17
2022-12-19T03:10:59.857Z,11.07
2022-12-19T03:14:13.443Z,11.23
2022-12-19T03:17:05.302Z,11.43
2022-12-19T03:19:52.763Z,11.87
2022-12-19T03:22:40.124Z,12.00
2022-12-19T03:25:29.804Z,12.13
2022-12-19T03:28:21.836Z,12.83
2022-12-19T03:31:10.341Z,12.50
2022-12-19T03:34:00.331Z,12.60
2022-12-19T03:36:49.958Z,12.30
2022-12-19T03:39:38.069Z,12.20
2022-12-19T03:42:45.565Z,13.23
2022-12-19T03:45:39.088Z,11.93
2022-12-19T03:48:32.784Z,13.03
2022-12-19T03:51:20.147Z,13.33
2022-12-19T03:54:13.477Z,13.40
2022-12-19T03:57:16.888Z,12.23
2022-12-19T04:00:08.425Z,11.27
2022-12-19T04:02:57.175Z,11.73
2022-12-19T04:05:46.436Z,11.73
2022-12-19T04:08:34.228Z,13.03
2022-12-19T04:11:21.911Z,12.57
2022-12-19T04:14:12.337Z,12.40
2022-12-19T04:17:02.740Z,11.33
2022-12-19T04:19:54.936Z,11.30
2022-12-19T04:22:53.185Z,11.07
2022-12-19T04:25:46.258Z,11.97
2022-12-19T04:28:37.019Z,13.23
2022-12-19T04:31:24.612Z,10.43
2022-12-19T04:34:11.990Z,11.13
2022-12-19T04:37:02.697Z,11.13
2022-12-19T04:39:50.046Z,9.47
2022-12-19T04:42:37.534Z,10.40
2022-12-19T04:45:24.906Z,12.37
2022-12-19T04:48:12.618Z,11.83
2022-12-19T04:50:59.959Z,10.73
2022-12-19T04:53:47.406Z,10.93
2022-12-19T04:56:34.759Z,11.53
2022-12-19T04:59:22.115Z,11.27
2022-12-19T05:02:09.595Z,10.97
2022-12-19T05:04:57.202Z,13.43
2022-12-19T05:07:44.592Z,11.47
2022-12-19T05:10:31.917Z,13.13
2022-12-19T05:13:19.245Z,11.60
2022-12-19T05:16:08.083Z,12.13
2022-12-19T05:18:55.878Z,12.30
2022-12-19T05:21:43.231Z,10.77
2022-12-19T05:24:30.673Z,11.73
2022-12-19T05:27:18.796Z,11.13
2022-12-19T05:30:06.455Z,11.53
2022-12-19T05:32:53.811Z,10.40
2022-12-19T05:35:41.204Z,11.13
2022-12-19T05:38:28.972Z,11.57
2022-12-19T05:41:18.225Z,10.53
2022-12-19T05:44:05.660Z,11.43
2022-12-19T05:46:53.127Z,10.93
2022-12-19T05:49:40.570Z,9.57
2022-12-19T05:52:27.963Z,11.13
2022-12-19T05:55:15.460Z,11.03
2022-12-19T05:58:02.807Z,11.77
2022-12-19T06:00:50.255Z,11.50
2022-12-19T06:03:37.889Z,11.37
2022-12-19T06:06:26.881Z,11.87
2022-12-19T06:09:14.226Z,11.97
2022-12-19T06:12:02.094Z,12.27
2022-12-19T06:14:49.471Z,11.23
2022-12-19T06:17:36.812Z,10.57
2022-12-19T06:20:24.175Z,12.33
2022-12-19T06:23:11.532Z,11.77
2022-12-19T06:25:59.565Z,11.10
2022-12-19T06:28:47.377Z,11.33
2022-12-19T06:31:34.789Z,9.80
2022-12-19T06:34:54.940Z,11.50
2022-12-19T06:37:29.878Z,11.07
2022-12-19T06:40:37.262Z,11.77
2022-12-19T06:43:26.163Z,9.83
2022-12-19T06:46:13.647Z,10.43
2022-12-19T06:49:01.796Z,11.07
2022-12-19T06:51:49.151Z,11.90
2022-12-19T06:54:36.563Z,10.20
2022-12-19T06:57:24.139Z,10.10
2022-12-19T07:00:11.968Z,11.50
2022-12-19T07:03:00.334Z,10.57
2022-12-19T07:05:48.904Z,10.23
2022-12-19T07:08:36.269Z,10.63
2022-12-19T07:11:23.646Z,11.37
2022-12-19T07:14:10.991Z,9.87
2022-12-19T07:17:00.179Z,10.63
2022-12-19T07:19:47.637Z,10.73
2022-12-19T07:22:35.480Z,11.17
2022-12-19T07:25:22.876Z,9.57
2022-12-19T07:28:10.486Z,10.13
2022-12-19T07:30:57.840Z,10.27
2022-12-19T07:33:45.317Z,11.03
2022-12-19T07:36:32.761Z,10.37
2022-12-19T07:39:21.799Z,9.90
2022-12-19T07:42:09.224Z,10.37
2022-12-19T07:44:56.592Z,11.17
2022-12-19T07:47:43.961Z,10.70
2022-12-19T07:50:32.019Z,10.30
2022-12-19T07:53:19.360Z,10.90
2022-12-19T07:56:07.367Z,11.33
2022-12-19T07:58:55.383Z,9.87
2022-12-19T08:01:42.999Z,11.00
2022-12-19T08:04:30.574Z,11.00
2022-12-19T08:07:17.934Z,10.20
2022-12-19T08:10:06.784Z,11.27
2022-12-19T08:12:54.225Z,11.47
2022-12-19T08:15:41.582Z,11.23
2022-12-19T08:18:29.082Z,10.50
2022-12-19T08:21:16.769Z,10.47
2022-12-19T08:24:04.319Z,9.97
2022-12-19T08:26:51.744Z,9.80
2022-12-19T08:29:39.117Z,10.63
2022-12-19T08:32:29.552Z,11.37
2022-12-19T08:35:16.985Z,11.67
2022-12-19T08:38:04.479Z,11.33
2022-12-19T08:40:54.822Z,13.07
2022-12-19T08:43:42.356Z,11.20
2022-12-19T08:46:29.836Z,10.90
2022-12-19T08:49:18.813Z,12.80
2022-12-19T08:52:06.170Z,13.93
2022-12-19T08:54:53.586Z,12.53
2022-12-19T08:57:41.126Z,12.20
2022-12-19T09:00:28.493Z,12.40
2022-12-19T09:03:16.140Z,12.67
2022-12-19T09:06:15.466Z,13.07
2022-12-19T09:09:07.089Z,10.97
2022-12-19T09:11:54.428Z,12.93
2022-12-19T09:14:41.807Z,12.90
2022-12-19T09:17:29.368Z,13.00
2022-12-19T09:20:22.833Z,12.57
2022-12-19T09:23:11.170Z,12.13
2022-12-19T09:26:02.609Z,11.40
2022-12-19T09:28:50.047Z,11.70
2022-12-19T09:31:37.461Z,10.70
2022-12-19T09:34:38.176Z,14.57
2022-12-19T09:37:26.243Z,12.13
2022-12-19T09:40:17.119Z,13.77
2022-12-19T09:43:11.619Z,12.20
2022-12-19T09:45:58.975Z,14.73
2022-12-19T09:48:50.901Z,13.93
2022-12-19T09:51:47.408Z,13.97
2022-12-19T09:54:55.380Z,13.10
2022-12-19T09:57:54.910Z,13.93
2022-12-19T10:00:55.338Z,11.53
2022-12-19T10:03:53.915Z,13.00
2022-12-19T10:07:18.655Z,12.73
2022-12-19T10:12:25.404Z,12.40
2022-12-19T10:13:16.296Z,13.03
2022-12-19T10:16:25.507Z,15.53
2022-12-19T10:19:20.553Z,14.70
2022-12-19T10:22:23.470Z,15.43
2022-12-19T10:25:13.633Z,14.63
2022-12-19T10:28:18.422Z,14.20
2022-12-19T10:31:21.045Z,14.87
2022-12-19T10:34:19.321Z,12.90
2022-12-19T10:37:32.759Z,13.37
2022-12-19T10:40:29.427Z,13.57
2022-12-19T10:43:32.819Z,13.87
2022-12-19T10:46:25.941Z,13.07
2022-12-19T10:49:24.302Z,12.47
2022-12-19T10:52:12.591Z,13.70
2022-12-19T10:54:59.987Z,12.83
2022-12-19T10:57:47.438Z,12.57
2022-12-19T11:00:34.859Z,11.90
2022-12-19T11:03:23.030Z,12.93
2022-12-19T11:06:30.765Z,13.03
2022-12-19T11:09:20.415Z,13.30
2022-12-19T11:17:40.614Z,14.37
2022-12-19T11:21:57.284Z,16.03
2022-12-19T11:28:14.525Z,13.30
2022-12-19T11:29:36.674Z,12.73
2022-12-19T11:30:42.814Z,13.63
2022-12-19T11:30:45.508Z,13.20
2022-12-19T11:34:37.785Z,12.20
2022-12-19T11:37:39.201Z,13.43
2022-12-19T11:40:48.465Z,14.23
2022-12-19T11:43:46.845Z,13.00
2022-12-19T11:46:44.954Z,13.87
2022-12-19T11:49:47.186Z,15.87
2022-12-19T11:53:11.484Z,14.53
2022-12-19T11:56:15.964Z,14.47
2022-12-19T11:59:19.440Z,14.33
2022-12-19T12:02:35.226Z,14.83
2022-12-19T12:05:22.174Z,15.33
2022-12-19T12:10:16.186Z,14.50
2022-12-19T12:15:16.384Z,15.37
2022-12-19T12:31:00.244Z,15.10
2022-12-19T12:31:15.191Z,14.30
2022-12-19T12:31:39.012Z,15.13
2022-12-19T12:31:58.268Z,14.20
2022-12-19T12:32:03.365Z,14.00
2022-12-19T12:35:46.743Z,16.30
2022-12-19T12:40:25.484Z,16.00
2022-12-19T12:43:37.069Z,13.93
2022-12-19T12:46:32.925Z,14.63
2022-12-19T12:49:38.276Z,14.77
2022-12-19T12:52:37.960Z,17.10
2022-12-19T12:55:30.208Z,14.83
2022-12-19T12:58:42.425Z,15.73
2022-12-19T13:01:29.533Z,15.67
2022-12-19T13:04:16.604Z,14.60
2022-12-19T13:07:26.971Z,14.37
2022-12-19T13:10:16.885Z,15.30
2022-12-19T13:13:16.532Z,14.97
2022-12-19T13:16:48.620Z,15.13
2022-12-19T13:19:38.261Z,14.13
2022-12-19T13:22:31.772Z,13.90
2022-12-19T13:25:47.581Z,14.77
2022-12-19T13:28:37.182Z,14.63
2022-12-19T13:31:24.165Z,13.90
2022-12-19T13:34:17.634Z,13.00
2022-12-19T13:39:59.350Z,13.70
2022-12-19T13:40:56.129Z,14.03
2022-12-19T13:43:45.972Z,13.27
2022-12-19T13:46:44.671Z,12.13
2022-12-19T13:49:34.686Z,13.67
2022-12-19T13:52:22.869Z,12.37
2022-12-19T13:55:14.417Z,12.53
2022-12-19T13:58:04.640Z,12.93
2022-12-19T14:00:54.104Z,12.17
2022-12-19T14:03:44.128Z,12.37
2022-12-19T14:06:42.884Z,12.83
2022-12-19T14:11:34.367Z,12.90
2022-12-19T14:13:49.681Z,13.57
2022-12-19T14:16:16.334Z,12.90
2022-12-19T14:19:03.536Z,13.73
2022-12-19T14:22:11.421Z,13.73
2022-12-19T14:26:06.035Z,14.20
2022-12-19T14:28:29.519Z,14.10
2022-12-19T14:31:19.272Z,13.50
2022-12-19T14:34:43.376Z,13.30
2022-12-19T14:39:18.501Z,13.23
2022-12-19T14:41:07.319Z,14.43
2022-12-19T14:43:59.639Z,13.27
2022-12-19T14:54:08.900Z,14.60
2022-12-19T14:54:24.146Z,13.80
2022-12-19T14:54:27.815Z,14.77
2022-12-19T14:56:59.539Z,14.40
2022-12-19T14:59:48.847Z,14.47
2022-12-19T15:02:37.374Z,14.00
2022-12-19T15:05:24.880Z,16.90
2022-12-19T15:08:12.188Z,16.80
2022-12-19T15:11:41.054Z,16.07
2022-12-19T15:14:51.500Z,16.17
2022-12-19T15:17:47.855Z,15.90
2022-12-19T15:20:34.797Z,16.60
2022-12-19T15:23:22.809Z,17.60
2022-12-19T15:26:19.908Z,17.30
2022-12-19T15:29:16.601Z,16.70
2022-12-19T15:32:08.974Z,18.27
2022-12-19T15:34:55.977Z,18.67
2022-12-19T15:37:43.767Z,18.20
2022-12-19T15:40:30.705Z,19.40
2022-12-19T15:44:01.104Z,22.20
2022-12-19T15:46:30.893Z,34.87
2022-12-19T15:49:19.916Z,63.00
2022-12-19T15:52:19.742Z,29.08
2022-12-19T15:55:09.600Z,21.10
2022-12-19T15:58:03.255Z,19.67
2022-12-19T16:00:55.278Z,21.03
2022-12-19T16:03:42.502Z,19.90
2022-12-19T16:06:29.795Z,20.10
2022-12-19T16:09:24.133Z,21.33
2022-12-19T16:12:19.470Z,20.40
2022-12-19T16:15:13.271Z,21.27
2022-12-19T16:18:03.194Z,21.03
2022-12-19T16:20:50.720Z,21.10
2022-12-19T16:23:37.684Z,21.33
2022-12-19T16:26:37.316Z,22.60
2022-12-19T16:29:28.406Z,22.10
2022-12-19T16:32:16.206Z,21.53
2022-12-19T16:35:12.271Z,21.17
2022-12-19T16:37:59.257Z,23.30
2022-12-19T16:40:52.909Z,20.13
2022-12-19T16:43:43.604Z,23.23
2022-12-19T16:46:30.968Z,22.80
2022-12-19T16:49:22.857Z,23.13
2022-12-19T16:52:10.109Z,21.77
2022-12-19T16:54:57.100Z,24.20
2022-12-19T16:57:46.346Z,24.20
2022-12-19T17:00:36.832Z,22.87
2022-12-19T17:03:33.523Z,23.43
2022-12-19T17:06:22.356Z,24.13
2022-12-19T17:09:15.555Z,22.77
2022-12-19T17:12:02.619Z,24.40
2022-12-19T17:14:52.161Z,24.03
2022-12-19T17:17:41.653Z,23.33
2022-12-19T17:20:31.663Z,22.53
2022-12-19T17:23:20.249Z,23.60
2022-12-19T17:26:08.079Z,24.67
2022-12-19T17:28:57.292Z,25.13
2022-12-19T17:31:44.732Z,26.23
2022-12-19T17:34:33.391Z,25.27
2022-12-19T17:37:20.592Z,25.57
2022-12-19T17:40:22.697Z,24.13
2022-12-19T17:43:13.192Z,24.33
2022-12-19T17:46:00.714Z,24.80
2022-12-19T17:48:51.134Z,36.67
2022-12-19T17:51:38.104Z,28.53
2022-12-19T17:54:26.374Z,28.50
2022-12-19T17:57:17.659Z,27.07
2022-12-19T18:00:05.071Z,25.53
2022-12-19T18:02:54.637Z,24.40
2022-12-19T18:05:41.739Z,24.33
2022-12-19T18:08:31.655Z,27.87
2022-12-19T18:11:22.210Z,27.27
2022-12-19T18:14:09.162Z,25.17
2022-12-19T18:16:56.171Z,26.43
2022-12-19T18:19:43.718Z,26.67
2022-12-19T18:22:30.677Z,36.55
2022-12-19T18:25:23.621Z,27.93
2022-12-19T18:28:10.690Z,26.70
2022-12-19T18:31:04.026Z,26.23
2022-12-19T18:33:53.116Z,29.43
2022-12-19T18:36:42.507Z,33.17
2022-12-19T18:39:31.911Z,34.57
2022-12-19T18:42:20.308Z,30.43
2022-12-19T18:45:08.913Z,41.40
2022-12-19T18:47:59.026Z,41.23
2022-12-19T18:50:46.304Z,42.63
2022-12-19T18:53:35.748Z,46.17
2022-12-19T18:56:23.153Z,37.47
2022-12-19T18:59:11.098Z,41.23
2022-12-19T19:01:58.173Z,33.50
2022-12-19T19:04:45.189Z,26.37
2022-12-19T19:07:32.632Z,26.27
2022-12-19T19:10:29.056Z,26.17
2022-12-19T19:13:17.685Z,27.00
2022-12-19T19:16:20.483Z,25.43
2022-12-19T19:19:10.523Z,25.20
2022-12-19T19:21:57.510Z,24.87
2022-12-19T19:24:44.464Z,24.40
2022-12-19T19:27:31.571Z,25.23
2022-12-19T19:30:18.780Z,27.37
2022-12-19T19:33:12.842Z,27.07
2022-12-19T19:36:11.008Z,27.43
2022-12-19T19:38:58.850Z,26.60
2022-12-19T19:41:45.806Z,26.17
2022-12-19T19:44:32.873Z,26.70
2022-12-19T19:47:26.103Z,27.70
2022-12-19T19:50:13.186Z,26.77
2022-12-19T19:53:00.297Z,26.57
2022-12-19T19:55:57.591Z,26.67
2022-12-19T19:58:44.596Z,27.17
2022-12-19T20:01:32.215Z,27.60
2022-12-19T20:04:19.485Z,27.20
2022-12-19T20:07:06.877Z,26.70
2022-12-19T20:09:53.982Z,26.50
2022-12-19T20:12:40.952Z,26.80
2022-12-19T20:15:27.954Z,28.50
2022-12-19T20:18:14.964Z,27.70
2022-12-19T20:21:03.823Z,30.60
2022-12-19T20:23:52.788Z,31.70
2022-12-19T20:26:40.783Z,30.57
2022-12-19T20:29:27.766Z,36.53
2022-12-19T20:32:15.033Z,34.23
2022-12-19T20:35:01.976Z,23.93
2022-12-19T20:37:48.993Z,25.23
2022-12-19T20:40:35.932Z,26.67
2022-12-19T20:43:23.805Z,25.57
2022-12-19T20:46:13.720Z,26.50
2022-12-19T20:49:00.814Z,26.03
2022-12-19T20:51:47.819Z,25.43
2022-12-19T20:54:34.807Z,25.37
2022-12-19T20:57:21.763Z,24.03
2022-12-19T21:00:10.138Z,24.47
2022-12-19T21:06:05.306Z,23.60
2022-12-19T21:08:52.561Z,23.40
2022-12-19T21:11:39.596Z,25.93
2022-12-19T21:14:26.538Z,23.37
2022-12-19T21:17:13.784Z,24.40
2022-12-19T21:20:00.706Z,24.30
2022-12-19T21:22:47.633Z,23.70
2022-12-19T21:25:34.585Z,25.10
2022-12-19T21:28:21.509Z,27.30
2022-12-19T21:31:25.020Z,28.97
2022-12-19T21:34:12.516Z,23.30
2022-12-19T21:36:59.497Z,25.20
2022-12-19T21:39:46.575Z,25.07
2022-12-19T21:42:33.517Z,23.27
2022-12-19T21:45:20.570Z,23.57
2022-12-19T21:48:08.590Z,24.10
2022-12-19T21:50:56.194Z,22.67
2022-12-19T21:53:43.258Z,25.23
2022-12-19T21:56:35.522Z,23.00
2022-12-19T21:59:22.571Z,24.23
2022-12-19T22:02:10.747Z,24.00
2022-12-19T22:04:57.716Z,24.67
2022-12-19T22:07:44.674Z,22.33
2022-12-19T22:10:31.597Z,22.60
2022-12-19T22:13:18.537Z,23.13
2022-12-19T22:16:05.960Z,22.63
2022-12-19T22:18:53.150Z,21.80
2022-12-19T22:21:40.407Z,21.93
2022-12-19T22:24:27.397Z,22.47
2022-12-19T22:27:14.415Z,22.27
2022-12-19T22:30:08.495Z,21.27
2022-12-19T22:32:57.705Z,22.67
2022-12-19T22:35:44.650Z,20.37
2022-12-19T22:38:31.626Z,22.77
2022-12-19T22:41:20.088Z,20.53
2022-12-19T22:44:08.518Z,21.10
2022-12-19T22:46:55.477Z,20.40
2022-12-19T22:49:42.434Z,20.40
2022-12-19T22:52:29.350Z,25.07
2022-12-19T22:55:16.331Z,21.80
2022-12-19T22:58:03.268Z,20.43
2022-12-19T23:00:50.257Z,22.30
2022-12-19T23:03:37.327Z,26.40
2022-12-19T23:06:26.596Z,26.43
2022-12-19T23:09:17.349Z,21.40
2022-12-19T23:12:04.391Z,23.63
2022-12-19T23:14:51.408Z,25.77
2022-12-19T23:17:38.390Z,21.40
2022-12-19T23:20:25.404Z,21.50
2022-12-19T23:23:13.136Z,21.27
2022-12-19T23:26:00.558Z,24.17
2022-12-19T23:28:57.705Z,21.50
2022-12-19T23:31:46.588Z,19.77
2022-12-19T23:34:33.650Z,21.17
2022-12-19T23:37:20.602Z,21.53
2022-12-19T23:40:08.301Z,20.13
2022-12-19T23:42:55.290Z,21.37
2022-12-19T23:45:42.413Z,20.50
2022-12-19T23:48:29.389Z,20.40
2022-12-19T23:51:20.583Z,21.30
2022-12-19T23:54:08.789Z,19.60
2022-12-19T23:56:55.803Z,18.27
2022-12-19T23:59:42.762Z,18.10
